Airfield :
LOGIN :

Register | Disclaimer

   EN    FR    IT 

 










Legend :    VFR   Marginal VFR   IFR   Intensive IFR   Very Intensive IFR
Visi :
Ceiling :
>= 8 km
>= 3000ft
5 to 8 km
1000 to 3000 ft
1500m to 5 km
500 to 1000 ft
800 to 1500m
200 to 500 ft
< 800m
< 200 ft
Symbols :   Thunderstorms  Fog  Heavy snow  Heavy precipitations  Wind > 20 kt
SIGMETs :     Misc.  Thunderstorms  Icing  Turbulence  Mountain Waves  Volcanic Ashes







- Airport Elevation : 276 ft


LYVR - Vršac International

CURRENT METAR :
  • 202130Z 14036G51KT 9999 BKN040 06/03 Q1012 NOSIG

EXPIRED METARs :
  • 202100Z 13037G53KT 9999 BKN040 06/02 Q1011 NOSIG
  • 202030Z 14036G52KT 9999 -RA BKN040 06/02 Q1012 NOSIG
  • 202000Z 13035G53KT 9999 -RA BKN040 06/02 Q1012 NOSIG
  • 201930Z 13031G50KT 9999 -RA BKN040 06/03 Q1012 NOSIG
  • 201900Z 13030G49KT CAVOK 06/02 Q1012 NOSIG
  • 201830Z 13034G51KT CAVOK 06/02 Q1010 NOSIG

TAF TAF LYVR
Valid from the 20 at 18:00 until the 21 at 18:00 UTC


201700Z 2018/2118 12035G55KT 9999 BKN045 TX06/2018Z TN04/2106Z
BECMG 2020/2023 14020G35KT
BECMG 2103/2105 04006KT 3000 -RA BR BKN006 BKN027
BECMG 2111/2113 BKN012 BKN030
No reported NOTAMs for that airfield.



MET'MAP, your aeronautical weather chart ! - Copyright ORBIFLY December 2007 - Disclaimer

ORBIFLY MET'MAP TEAM :

Programming & Development : Alexandra Zaïnal
Concept & Development : Baudouin d'Aumeries
Co-Development & Prog : Marc-Olivier Méhu
Technical & hardware support : Manuel Goepfert

Contact : metmap@orbifly.com




SOURCES & CREDITS :

   NOAA